Time;durP1;ratioP1;P1;durP2;ratioP2;P2;SDS_P1;SDS_P2;PMS_P1;PMS_P2;Temp;Humidity;BMP_temperature;BMP_pressure;BME280_temperature;BME280_humidity;BME280_pressure;Samples;Min_cycle;Max_cycle;Signal;HPM_P1;HPM_P2
2023/08/09 00:02:31;;;;;;;;;5.00;3.00;;;;;;;;6489054;46;8916;-51
2023/08/09 00:08:34;;;;;;;;;5.00;5.00;;;;;;;;6489551;39;8854;-52
2023/08/09 00:14:37;;;;;;;;;5.00;5.00;;;;;;;;6489053;46;8864;-52
2023/08/09 00:20:40;;;;;;;;;5.00;4.33;;;;;;;;6489002;39;8927;-49
2023/08/09 00:26:43;;;;;;;;;7.00;7.00;;;;;;;;6489633;39;8844;-52
2023/08/09 00:32:45;;;;;;;;;5.00;4.00;;;;;;;;6488635;39;8937;-51
2023/08/09 00:38:48;;;;;;;;;9.33;5.67;;;;;;;;6488899;47;8856;-51
2023/08/09 00:44:50;;;;;;;;;9.33;8.67;;;;;;;;6488476;39;8897;-53
2023/08/09 00:50:54;;;;;;;;;9.33;8.33;;;;;;;;6487033;47;8928;-49
2023/08/09 00:56:57;;;;;;;;;5.00;5.00;;;;;;;;6486960;39;9106;-52
2023/08/09 01:03:02;;;;;;;;;7.67;6.33;;;;;;;;6486684;39;9593;-51
2023/08/09 01:09:16;;;;;;;;;8.33;6.67;;;;;;;;6489683;31;8877;-51
2023/08/09 01:15:21;;;;;;;;;5.00;5.00;;;;;;;;6489417;46;9000;-54
2023/08/09 01:21:28;;;;;;;;;6.67;5.00;;;;;;;;6488975;39;9570;-50
2023/08/09 01:27:32;;;;;;;;;8.33;5.00;;;;;;;;6489043;46;9072;-49
2023/08/09 01:33:35;;;;;;;;;9.33;8.33;;;;;;;;6490406;39;8897;-49
2023/08/09 01:39:40;;;;;;;;;8.33;8.00;;;;;;;;6489742;39;8939;-51
2023/08/09 01:45:42;;;;;;;;;5.00;3.33;;;;;;;;6490373;31;8901;-50
2023/08/09 01:51:45;;;;;;;;;6.33;5.67;;;;;;;;6489907;39;9496;-49
2023/08/09 01:57:48;;;;;;;;;5.00;5.00;;;;;;;;6488609;31;8960;-50
2023/08/09 02:03:51;;;;;;;;;5.00;5.00;;;;;;;;6488551;39;9412;-52
2023/08/09 02:09:55;;;;;;;;;7.33;7.00;;;;;;;;6489059;46;8940;-51
2023/08/09 02:15:59;;;;;;;;;5.33;5.33;;;;;;;;6488771;31;9020;-53
2023/08/09 02:22:02;;;;;;;;;5.67;4.67;;;;;;;;6488373;39;8899;-52
2023/08/09 02:28:05;;;;;;;;;5.00;5.00;;;;;;;;6488451;46;8900;-53
2023/08/09 02:34:08;;;;;;;;;8.00;5.67;;;;;;;;6489445;39;8865;-52
2023/08/09 02:40:11;;;;;;;;;8.00;8.00;;;;;;;;6487995;46;9041;-51
2023/08/09 02:46:15;;;;;;;;;7.00;5.33;;;;;;;;6489191;31;8869;-50
2023/08/09 02:52:18;;;;;;;;;6.67;6.00;;;;;;;;6487805;36;8902;-51
2023/08/09 02:58:21;;;;;;;;;5.33;5.33;;;;;;;;6488442;39;8983;-52
2023/08/09 03:04:24;;;;;;;;;8.00;5.00;;;;;;;;6490387;31;8851;-52
2023/08/09 03:10:28;;;;;;;;;5.00;5.00;;;;;;;;6488384;31;8893;-53
2023/08/09 03:16:30;;;;;;;;;7.50;7.50;;;;;;;;6488472;39;8894;-50
2023/08/09 03:22:33;;;;;;;;;5.00;5.00;;;;;;;;6487327;46;8971;-53
2023/08/09 03:28:38;;;;;;;;;8.00;5.33;;;;;;;;6486068;46;8859;-50
2023/08/09 03:34:43;;;;;;;;;6.33;6.33;;;;;;;;6488699;46;8951;-52
2023/08/09 03:40:48;;;;;;;;;4.67;4.67;;;;;;;;6488883;31;8986;-53
2023/08/09 03:46:51;;;;;;;;;10.33;9.67;;;;;;;;6489307;31;8933;-51
2023/08/09 03:52:54;;;;;;;;;7.33;7.00;;;;;;;;6487801;46;8978;-49
2023/08/09 03:58:57;;;;;;;;;7.67;7.67;;;;;;;;6487029;39;9614;-51
2023/08/09 04:05:00;;;;;;;;;10.00;8.50;;;;;;;;6469997;39;9123;-50
2023/08/09 04:11:04;;;;;;;;;5.67;5.67;;;;;;;;6491849;39;8961;-52
2023/08/09 04:17:07;;;;;;;;;9.67;8.00;;;;;;;;6490415;39;8936;-50
2023/08/09 04:23:10;;;;;;;;;8.00;8.00;;;;;;;;6490425;39;8908;-50
2023/08/09 04:29:12;;;;;;;;;5.67;5.67;;;;;;;;6491645;47;8851;-50
2023/08/09 04:35:15;;;;;;;;;9.33;8.33;;;;;;;;6490029;47;8933;-53
2023/08/09 04:41:32;;;;;;;;;6.00;5.67;;;;;;;;6492167;39;8820;-54
2023/08/09 04:47:52;;;;;;;;;5.00;5.00;;;;;;;;6492107;39;8900;-53
2023/08/09 04:53:55;;;;;;;;;8.00;7.00;;;;;;;;6492831;39;8883;-50
2023/08/09 04:59:58;;;;;;;;;4.00;4.00;;;;;;;;6515998;36;9106;-49
2023/08/09 05:06:03;;;;;;;;;5.00;5.00;;;;;;;;6491656;39;8895;-51
2023/08/09 05:12:06;;;;;;;;;8.00;8.00;;;;;;;;6489545;46;8932;-53
2023/08/09 05:18:08;;;;;;;;;7.00;5.00;;;;;;;;6491858;39;8889;-52
2023/08/09 05:24:11;;;;;;;;;7.33;5.67;;;;;;;;6490749;46;9037;-53
2023/08/09 05:30:18;;;;;;;;;3.67;3.67;;;;;;;;6489896;46;8870;-53
2023/08/09 05:36:22;;;;;;;;;4.67;4.67;;;;;;;;6491090;31;9636;-52
2023/08/09 05:42:24;;;;;;;;;7.00;5.00;;;;;;;;6489694;31;8959;-53
2023/08/09 05:48:27;;;;;;;;;5.25;5.00;;;;;;;;6490669;39;9017;-51
2023/08/09 05:54:31;;;;;;;;;4.00;4.00;;;;;;;;6489584;39;9008;-51
2023/08/09 06:00:34;;;;;;;;;4.00;4.00;;;;;;;;6490787;46;8830;-53
2023/08/09 06:06:38;;;;;;;;;4.50;4.50;;;;;;;;6489079;39;8897;-57
2023/08/09 06:12:40;;;;;;;;;4.00;4.00;;;;;;;;6490540;46;8846;-52
2023/08/09 06:18:43;;;;;;;;;3.00;3.00;;;;;;;;6491794;39;9031;-51
2023/08/09 06:24:47;;;;;;;;;2.75;2.75;;;;;;;;6490058;46;8886;-53
2023/08/09 06:30:50;;;;;;;;;4.00;3.00;;;;;;;;6491038;39;8915;-54
2023/08/09 06:36:53;;;;;;;;;2.00;2.00;;;;;;;;6490473;39;8949;-52
2023/08/09 06:42:57;;;;;;;;;2.25;2.25;;;;;;;;6489464;46;8935;-54
2023/08/09 06:49:00;;;;;;;;;4.00;4.00;;;;;;;;6488992;46;8865;-51
2023/08/09 06:55:05;;;;;;;;;2.50;2.50;;;;;;;;6489397;39;8921;-52
2023/08/09 07:01:09;;;;;;;;;5.00;4.50;;;;;;;;6486444;39;8917;-50
2023/08/09 07:07:13;;;;;;;;;7.50;5.75;;;;;;;;6482493;39;8869;-53
2023/08/09 07:13:17;;;;;;;;;2.25;2.25;;;;;;;;6483967;46;8914;-52
2023/08/09 07:19:19;;;;;;;;;5.50;5.50;;;;;;;;6486295;31;9521;-52
2023/08/09 07:25:23;;;;;;;;;5.00;5.00;;;;;;;;6485363;39;8889;-55
2023/08/09 07:31:25;;;;;;;;;3.50;3.50;;;;;;;;6485797;46;8930;-53
2023/08/09 07:37:28;;;;;;;;;7.25;6.25;;;;;;;;6487180;31;9489;-55
2023/08/09 07:43:31;;;;;;;;;2.00;2.00;;;;;;;;6482954;39;8869;-53
2023/08/09 07:49:34;;;;;;;;;3.00;3.00;;;;;;;;6483056;39;8948;-54
2023/08/09 07:55:37;;;;;;;;;9.00;8.75;;;;;;;;6484573;31;8908;-52
2023/08/09 08:01:40;;;;;;;;;5.75;5.75;;;;;;;;6482961;39;8910;-57
2023/08/09 08:07:44;;;;;;;;;13.25;13.25;;;;;;;;6483228;39;8861;-56
2023/08/09 08:13:47;;;;;;;;;3.00;3.00;;;;;;;;6481229;39;9541;-56
2023/08/09 08:19:50;;;;;;;;;5.00;5.00;;;;;;;;6483778;46;8881;-55
2023/08/09 08:25:52;;;;;;;;;4.75;4.75;;;;;;;;6481484;47;8851;-56
2023/08/09 08:31:55;;;;;;;;;10.25;8.50;;;;;;;;6483603;31;9529;-56
2023/08/09 08:37:59;;;;;;;;;17.25;17.25;;;;;;;;6483579;39;8969;-56
2023/08/09 08:44:01;;;;;;;;;1.50;1.50;;;;;;;;6483828;47;8882;-57
2023/08/09 08:50:04;;;;;;;;;16.25;15.25;;;;;;;;6304238;39;9999879;-55
2023/08/09 08:56:09;;;;;;;;;4.00;2.00;;;;;;;;6484134;39;8960;-56
2023/08/09 09:02:13;;;;;;;;;10.50;9.25;;;;;;;;6484306;46;8877;-55
2023/08/09 09:08:16;;;;;;;;;52.00;44.00;;;;;;;;6483806;39;8889;-54
2023/08/09 09:14:19;;;;;;;;;12.00;12.00;;;;;;;;6482567;47;8863;-54
2023/08/09 09:20:29;;;;;;;;;14.50;12.50;;;;;;;;6481600;39;8982;-55
2023/08/09 09:26:37;;;;;;;;;3.50;2.75;;;;;;;;6483946;46;8978;-58
2023/08/09 09:32:52;;;;;;;;;5.75;5.00;;;;;;;;6486282;46;8857;-56
2023/08/09 09:38:56;;;;;;;;;8.00;5.50;;;;;;;;6486730;31;8842;-55
2023/08/09 09:45:09;;;;;;;;;2.25;2.25;;;;;;;;6485241;46;8877;-55
2023/08/09 09:51:15;;;;;;;;;1.75;1.75;;;;;;;;6485556;46;8942;-57
2023/08/09 09:57:17;;;;;;;;;4.25;4.25;;;;;;;;6485995;31;9531;-55
2023/08/09 10:03:24;;;;;;;;;20.00;20.00;;;;;;;;6485334;39;8894;-57
2023/08/09 10:09:31;;;;;;;;;4.00;4.00;;;;;;;;6486356;31;9006;-58
2023/08/09 10:15:46;;;;;;;;;5.00;3.00;;;;;;;;6485851;31;8988;-56
2023/08/09 10:21:53;;;;;;;;;5.75;5.75;;;;;;;;6486084;39;8965;-55
2023/08/09 10:28:01;;;;;;;;;5.25;5.25;;;;;;;;6531330;36;8946;-56
2023/08/09 10:34:09;;;;;;;;;21.50;18.50;;;;;;;;6486223;39;8897;-54
2023/08/09 10:40:16;;;;;;;;;9.75;9.25;;;;;;;;6530910;36;8969;-58
2023/08/09 10:46:24;;;;;;;;;4.00;4.00;;;;;;;;6486212;31;8916;-57
2023/08/09 10:52:32;;;;;;;;;1.50;1.50;;;;;;;;6485194;31;9505;-55
2023/08/09 10:58:40;;;;;;;;;4.00;3.75;;;;;;;;6485691;31;8922;-55
2023/08/09 11:04:44;;;;;;;;;3.00;3.00;;;;;;;;6485496;39;8927;-60
2023/08/09 11:10:52;;;;;;;;;4.75;4.75;;;;;;;;6485274;46;9009;-56
2023/08/09 11:16:56;;;;;;;;;12.75;10.50;;;;;;;;6486034;36;8893;-55
2023/08/09 11:23:04;;;;;;;;;6.50;6.50;;;;;;;;6483929;39;8842;-55
2023/08/09 11:29:06;;;;;;;;;15.00;11.25;;;;;;;;6485534;46;8903;-55
2023/08/09 11:35:09;;;;;;;;;4.00;4.00;;;;;;;;6484427;39;8893;-56
2023/08/09 11:41:16;;;;;;;;;21.25;20.00;;;;;;;;6484120;31;9236;-57
2023/08/09 11:47:26;;;;;;;;;2.25;2.25;;;;;;;;6485980;31;8968;-57
2023/08/09 11:53:29;;;;;;;;;1.75;1.75;;;;;;;;6485474;46;8853;-58
2023/08/09 11:59:32;;;;;;;;;3.75;3.00;;;;;;;;6485441;39;8996;-56
2023/08/09 12:05:35;;;;;;;;;5.00;4.50;;;;;;;;6485041;39;8892;-55
2023/08/09 12:11:47;;;;;;;;;25.25;22.25;;;;;;;;6485907;39;8883;-53
